sensor_id;sensor_type;location;lat;lon;timestamp;P1;durP1;ratioP1;P2;durP2;ratioP2
31746;SDS011;18319;48.974;8.462;2023-11-21T00:00:33;2.38;;;0.63;;
31746;SDS011;18319;48.974;8.462;2023-11-21T00:03:01;1.63;;;0.55;;
31746;SDS011;18319;48.974;8.462;2023-11-21T00:05:29;1.92;;;0.68;;
31746;SDS011;18319;48.974;8.462;2023-11-21T00:07:56;1.55;;;1.15;;
31746;SDS011;18319;48.974;8.462;2023-11-21T00:10:22;5.38;;;0.60;;
31746;SDS011;18319;48.974;8.462;2023-11-21T00:12:49;0.75;;;0.65;;
31746;SDS011;18319;48.974;8.462;2023-11-21T00:15:16;2.45;;;0.40;;
31746;SDS011;18319;48.974;8.462;2023-11-21T00:17:43;3.35;;;0.68;;
31746;SDS011;18319;48.974;8.462;2023-11-21T00:20:13;1.98;;;0.60;;
31746;SDS011;18319;48.974;8.462;2023-11-21T00:22:39;2.05;;;0.77;;
31746;SDS011;18319;48.974;8.462;2023-11-21T00:25:06;3.50;;;0.70;;
31746;SDS011;18319;48.974;8.462;2023-11-21T00:27:34;4.95;;;0.70;;
31746;SDS011;18319;48.974;8.462;2023-11-21T00:30:01;0.85;;;0.68;;
31746;SDS011;18319;48.974;8.462;2023-11-21T00:32:30;3.10;;;0.60;;
31746;SDS011;18319;48.974;8.462;2023-11-21T00:34:57;3.13;;;0.70;;
31746;SDS011;18319;48.974;8.462;2023-11-21T00:37:25;1.77;;;0.60;;
31746;SDS011;18319;48.974;8.462;2023-11-21T00:39:52;3.97;;;0.95;;
31746;SDS011;18319;48.974;8.462;2023-11-21T00:42:19;1.10;;;0.50;;
31746;SDS011;18319;48.974;8.462;2023-11-21T00:44:46;2.45;;;0.75;;
31746;SDS011;18319;48.974;8.462;2023-11-21T00:47:13;0.98;;;0.47;;
31746;SDS011;18319;48.974;8.462;2023-11-21T00:49:40;1.83;;;0.65;;
31746;SDS011;18319;48.974;8.462;2023-11-21T00:52:06;1.48;;;0.50;;
31746;SDS011;18319;48.974;8.462;2023-11-21T00:54:34;2.70;;;0.93;;
31746;SDS011;18319;48.974;8.462;2023-11-21T00:57:01;1.33;;;0.68;;
31746;SDS011;18319;48.974;8.462;2023-11-21T00:59:28;3.03;;;0.70;;
31746;SDS011;18319;48.974;8.462;2023-11-21T01:01:55;0.73;;;0.73;;
31746;SDS011;18319;48.974;8.462;2023-11-21T01:04:25;1.60;;;0.70;;
31746;SDS011;18319;48.974;8.462;2023-11-21T01:06:52;2.83;;;0.52;;
31746;SDS011;18319;48.974;8.462;2023-11-21T01:09:18;2.60;;;0.50;;
31746;SDS011;18319;48.974;8.462;2023-11-21T01:11:46;2.28;;;0.70;;
31746;SDS011;18319;48.974;8.462;2023-11-21T01:14:13;3.45;;;0.70;;
31746;SDS011;18319;48.974;8.462;2023-11-21T01:16:40;1.95;;;0.68;;
31746;SDS011;18319;48.974;8.462;2023-11-21T01:19:07;1.08;;;0.50;;
31746;SDS011;18319;48.974;8.462;2023-11-21T01:21:34;2.58;;;0.70;;
31746;SDS011;18319;48.974;8.462;2023-11-21T01:24:01;1.95;;;0.52;;
31746;SDS011;18319;48.974;8.462;2023-11-21T01:26:28;0.80;;;0.50;;
31746;SDS011;18319;48.974;8.462;2023-11-21T01:28:56;1.17;;;0.55;;
31746;SDS011;18319;48.974;8.462;2023-11-21T01:31:24;3.28;;;0.50;;
31746;SDS011;18319;48.974;8.462;2023-11-21T01:33:54;2.45;;;0.60;;
31746;SDS011;18319;48.974;8.462;2023-11-21T01:36:21;1.02;;;0.55;;
31746;SDS011;18319;48.974;8.462;2023-11-21T01:38:47;2.08;;;0.50;;
31746;SDS011;18319;48.974;8.462;2023-11-21T01:41:14;2.30;;;0.50;;
31746;SDS011;18319;48.974;8.462;2023-11-21T01:43:41;1.13;;;0.70;;
31746;SDS011;18319;48.974;8.462;2023-11-21T01:46:09;0.82;;;0.50;;
31746;SDS011;18319;48.974;8.462;2023-11-21T01:48:36;1.92;;;1.13;;
31746;SDS011;18319;48.974;8.462;2023-11-21T01:51:03;2.47;;;0.75;;
31746;SDS011;18319;48.974;8.462;2023-11-21T01:53:30;3.63;;;0.60;;
31746;SDS011;18319;48.974;8.462;2023-11-21T01:55:57;1.98;;;0.55;;
31746;SDS011;18319;48.974;8.462;2023-11-21T01:58:24;1.05;;;0.85;;
31746;SDS011;18319;48.974;8.462;2023-11-21T02:00:50;2.35;;;0.85;;
31746;SDS011;18319;48.974;8.462;2023-11-21T02:03:21;2.80;;;0.80;;
31746;SDS011;18319;48.974;8.462;2023-11-21T02:05:48;2.70;;;0.60;;
31746;SDS011;18319;48.974;8.462;2023-11-21T02:08:14;0.80;;;0.57;;
31746;SDS011;18319;48.974;8.462;2023-11-21T02:10:41;2.15;;;0.55;;
31746;SDS011;18319;48.974;8.462;2023-11-21T02:13:08;4.05;;;0.63;;
31746;SDS011;18319;48.974;8.462;2023-11-21T02:15:35;4.40;;;0.52;;
31746;SDS011;18319;48.974;8.462;2023-11-21T02:18:03;1.20;;;0.50;;
31746;SDS011;18319;48.974;8.462;2023-11-21T02:20:32;2.20;;;0.73;;
31746;SDS011;18319;48.974;8.462;2023-11-21T02:23:03;1.27;;;0.70;;
31746;SDS011;18319;48.974;8.462;2023-11-21T02:25:30;3.28;;;0.65;;
31746;SDS011;18319;48.974;8.462;2023-11-21T02:27:58;5.30;;;1.27;;
31746;SDS011;18319;48.974;8.462;2023-11-21T02:30:26;2.20;;;0.75;;
31746;SDS011;18319;48.974;8.462;2023-11-21T02:32:53;3.47;;;0.85;;
31746;SDS011;18319;48.974;8.462;2023-11-21T02:35:20;0.45;;;0.40;;
31746;SDS011;18319;48.974;8.462;2023-11-21T02:37:47;2.15;;;0.43;;
31746;SDS011;18319;48.974;8.462;2023-11-21T02:40:16;0.57;;;0.52;;
31746;SDS011;18319;48.974;8.462;2023-11-21T02:42:43;0.55;;;0.55;;
31746;SDS011;18319;48.974;8.462;2023-11-21T02:45:10;2.53;;;0.90;;
31746;SDS011;18319;48.974;8.462;2023-11-21T02:47:38;1.00;;;1.00;;
31746;SDS011;18319;48.974;8.462;2023-11-21T02:50:05;1.35;;;0.50;;
31746;SDS011;18319;48.974;8.462;2023-11-21T02:52:33;4.82;;;0.82;;
31746;SDS011;18319;48.974;8.462;2023-11-21T02:55:00;3.50;;;0.73;;
31746;SDS011;18319;48.974;8.462;2023-11-21T02:57:28;1.05;;;0.60;;
31746;SDS011;18319;48.974;8.462;2023-11-21T02:59:55;2.95;;;0.63;;
31746;SDS011;18319;48.974;8.462;2023-11-21T03:02:22;0.60;;;0.50;;
31746;SDS011;18319;48.974;8.462;2023-11-21T03:04:48;1.63;;;0.85;;
31746;SDS011;18319;48.974;8.462;2023-11-21T03:07:15;0.75;;;0.70;;
31746;SDS011;18319;48.974;8.462;2023-11-21T03:09:44;4.25;;;0.68;;
31746;SDS011;18319;48.974;8.462;2023-11-21T03:12:11;2.78;;;0.80;;
31746;SDS011;18319;48.974;8.462;2023-11-21T03:14:39;3.45;;;0.80;;
31746;SDS011;18319;48.974;8.462;2023-11-21T03:17:06;3.08;;;0.63;;
31746;SDS011;18319;48.974;8.462;2023-11-21T03:19:33;1.48;;;0.70;;
31746;SDS011;18319;48.974;8.462;2023-11-21T03:21:59;2.90;;;1.30;;
31746;SDS011;18319;48.974;8.462;2023-11-21T03:24:26;1.52;;;0.60;;
31746;SDS011;18319;48.974;8.462;2023-11-21T03:26:53;0.75;;;0.60;;
31746;SDS011;18319;48.974;8.462;2023-11-21T03:29:20;4.78;;;0.68;;
31746;SDS011;18319;48.974;8.462;2023-11-21T03:31:48;1.23;;;0.95;;
31746;SDS011;18319;48.974;8.462;2023-11-21T03:34:15;1.77;;;0.57;;
31746;SDS011;18319;48.974;8.462;2023-11-21T03:36:45;0.93;;;0.50;;
31746;SDS011;18319;48.974;8.462;2023-11-21T03:39:12;1.95;;;0.80;;
31746;SDS011;18319;48.974;8.462;2023-11-21T03:41:39;4.50;;;0.63;;
31746;SDS011;18319;48.974;8.462;2023-11-21T03:44:06;0.68;;;0.50;;
31746;SDS011;18319;48.974;8.462;2023-11-21T03:46:32;1.33;;;0.55;;
31746;SDS011;18319;48.974;8.462;2023-11-21T03:49:01;2.72;;;0.55;;
31746;SDS011;18319;48.974;8.462;2023-11-21T03:51:27;0.50;;;0.50;;
31746;SDS011;18319;48.974;8.462;2023-11-21T03:53:54;4.13;;;0.70;;
31746;SDS011;18319;48.974;8.462;2023-11-21T03:56:21;0.57;;;0.57;;
31746;SDS011;18319;48.974;8.462;2023-11-21T03:58:47;2.78;;;0.95;;
31746;SDS011;18319;48.974;8.462;2023-11-21T04:01:18;1.27;;;0.50;;
31746;SDS011;18319;48.974;8.462;2023-11-21T04:03:46;0.50;;;0.45;;
31746;SDS011;18319;48.974;8.462;2023-11-21T04:06:15;0.45;;;0.45;;
31746;SDS011;18319;48.974;8.462;2023-11-21T04:08:42;1.15;;;0.40;;
31746;SDS011;18319;48.974;8.462;2023-11-21T04:11:09;0.95;;;0.85;;
31746;SDS011;18319;48.974;8.462;2023-11-21T04:13:36;3.08;;;0.70;;
31746;SDS011;18319;48.974;8.462;2023-11-21T04:16:04;2.22;;;0.63;;
31746;SDS011;18319;48.974;8.462;2023-11-21T04:18:31;1.85;;;0.50;;
31746;SDS011;18319;48.974;8.462;2023-11-21T04:20:59;1.83;;;0.80;;
31746;SDS011;18319;48.974;8.462;2023-11-21T04:23:28;2.25;;;0.60;;
31746;SDS011;18319;48.974;8.462;2023-11-21T04:25:56;2.35;;;0.75;;
31746;SDS011;18319;48.974;8.462;2023-11-21T04:28:22;0.82;;;0.65;;
31746;SDS011;18319;48.974;8.462;2023-11-21T04:30:49;4.85;;;1.00;;
31746;SDS011;18319;48.974;8.462;2023-11-21T04:33:16;1.13;;;0.82;;
31746;SDS011;18319;48.974;8.462;2023-11-21T04:35:43;2.78;;;0.77;;
31746;SDS011;18319;48.974;8.462;2023-11-21T04:38:10;1.13;;;0.95;;
31746;SDS011;18319;48.974;8.462;2023-11-21T04:40:38;0.75;;;0.73;;
31746;SDS011;18319;48.974;8.462;2023-11-21T04:43:05;3.20;;;0.65;;
31746;SDS011;18319;48.974;8.462;2023-11-21T04:45:32;5.95;;;1.08;;
31746;SDS011;18319;48.974;8.462;2023-11-21T04:47:58;1.95;;;0.90;;
31746;SDS011;18319;48.974;8.462;2023-11-21T04:50:25;0.88;;;0.57;;
31746;SDS011;18319;48.974;8.462;2023-11-21T04:52:52;10.13;;;0.88;;
31746;SDS011;18319;48.974;8.462;2023-11-21T04:55:19;2.50;;;1.00;;
31746;SDS011;18319;48.974;8.462;2023-11-21T04:57:47;2.53;;;0.90;;
31746;SDS011;18319;48.974;8.462;2023-11-21T05:00:14;1.23;;;0.57;;
31746;SDS011;18319;48.974;8.462;2023-11-21T05:02:41;2.40;;;0.70;;
31746;SDS011;18319;48.974;8.462;2023-11-21T05:05:09;1.05;;;0.70;;
31746;SDS011;18319;48.974;8.462;2023-11-21T05:07:36;1.70;;;0.60;;
31746;SDS011;18319;48.974;8.462;2023-11-21T05:10:03;1.13;;;1.00;;
31746;SDS011;18319;48.974;8.462;2023-11-21T05:12:35;2.63;;;0.55;;
31746;SDS011;18319;48.974;8.462;2023-11-21T05:15:05;2.75;;;0.80;;
31746;SDS011;18319;48.974;8.462;2023-11-21T05:17:34;1.23;;;0.75;;
31746;SDS011;18319;48.974;8.462;2023-11-21T05:20:01;0.90;;;0.88;;
31746;SDS011;18319;48.974;8.462;2023-11-21T05:22:33;2.45;;;0.90;;
31746;SDS011;18319;48.974;8.462;2023-11-21T05:25:00;1.05;;;1.05;;
31746;SDS011;18319;48.974;8.462;2023-11-21T05:27:28;1.42;;;0.70;;
31746;SDS011;18319;48.974;8.462;2023-11-21T05:29:54;1.50;;;1.30;;
31746;SDS011;18319;48.974;8.462;2023-11-21T05:32:22;1.17;;;1.13;;
31746;SDS011;18319;48.974;8.462;2023-11-21T05:34:49;1.48;;;0.80;;
31746;SDS011;18319;48.974;8.462;2023-11-21T05:37:16;2.42;;;0.98;;
31746;SDS011;18319;48.974;8.462;2023-11-21T05:39:43;1.52;;;1.27;;
31746;SDS011;18319;48.974;8.462;2023-11-21T05:42:10;1.15;;;1.05;;
31746;SDS011;18319;48.974;8.462;2023-11-21T05:44:37;3.25;;;1.20;;
31746;SDS011;18319;48.974;8.462;2023-11-21T05:47:08;1.45;;;1.27;;
31746;SDS011;18319;48.974;8.462;2023-11-21T05:49:36;2.50;;;1.35;;
31746;SDS011;18319;48.974;8.462;2023-11-21T05:52:03;1.77;;;1.02;;
31746;SDS011;18319;48.974;8.462;2023-11-21T05:54:30;1.40;;;1.30;;
31746;SDS011;18319;48.974;8.462;2023-11-21T05:56:57;2.17;;;1.20;;
31746;SDS011;18319;48.974;8.462;2023-11-21T05:59:25;1.15;;;1.00;;
31746;SDS011;18319;48.974;8.462;2023-11-21T06:01:51;0.90;;;0.90;;
31746;SDS011;18319;48.974;8.462;2023-11-21T06:04:18;1.80;;;0.95;;
31746;SDS011;18319;48.974;8.462;2023-11-21T06:06:50;1.52;;;1.42;;
31746;SDS011;18319;48.974;8.462;2023-11-21T06:09:17;2.70;;;1.50;;
31746;SDS011;18319;48.974;8.462;2023-11-21T06:11:44;1.58;;;1.20;;
31746;SDS011;18319;48.974;8.462;2023-11-21T06:14:11;1.80;;;1.60;;
31746;SDS011;18319;48.974;8.462;2023-11-21T06:16:37;1.35;;;1.25;;
31746;SDS011;18319;48.974;8.462;2023-11-21T06:19:05;2.60;;;1.40;;
31746;SDS011;18319;48.974;8.462;2023-11-21T06:21:32;2.53;;;1.48;;
31746;SDS011;18319;48.974;8.462;2023-11-21T06:24:00;3.53;;;1.50;;
31746;SDS011;18319;48.974;8.462;2023-11-21T06:26:27;1.35;;;1.25;;
31746;SDS011;18319;48.974;8.462;2023-11-21T06:28:54;2.55;;;1.40;;
31746;SDS011;18319;48.974;8.462;2023-11-21T06:31:22;1.67;;;1.30;;
31746;SDS011;18319;48.974;8.462;2023-11-21T06:33:48;1.88;;;1.30;;
31746;SDS011;18319;48.974;8.462;2023-11-21T06:36:17;1.40;;;1.13;;
31746;SDS011;18319;48.974;8.462;2023-11-21T06:38:43;1.50;;;1.40;;
31746;SDS011;18319;48.974;8.462;2023-11-21T06:41:12;1.52;;;0.93;;
31746;SDS011;18319;48.974;8.462;2023-11-21T06:43:40;1.35;;;1.30;;
31746;SDS011;18319;48.974;8.462;2023-11-21T06:46:10;3.20;;;1.80;;
31746;SDS011;18319;48.974;8.462;2023-11-21T06:48:39;1.38;;;1.33;;
31746;SDS011;18319;48.974;8.462;2023-11-21T06:51:06;1.10;;;1.08;;
31746;SDS011;18319;48.974;8.462;2023-11-21T06:53:33;1.20;;;1.15;;
31746;SDS011;18319;48.974;8.462;2023-11-21T06:56:00;1.30;;;1.20;;
31746;SDS011;18319;48.974;8.462;2023-11-21T06:58:28;1.60;;;1.50;;
31746;SDS011;18319;48.974;8.462;2023-11-21T07:00:55;4.15;;;1.55;;
31746;SDS011;18319;48.974;8.462;2023-11-21T07:03:23;2.25;;;1.58;;
31746;SDS011;18319;48.974;8.462;2023-11-21T07:05:51;2.20;;;1.58;;
31746;SDS011;18319;48.974;8.462;2023-11-21T07:08:17;2.10;;;2.00;;
31746;SDS011;18319;48.974;8.462;2023-11-21T07:10:44;1.80;;;1.70;;
31746;SDS011;18319;48.974;8.462;2023-11-21T07:13:12;2.00;;;1.90;;
31746;SDS011;18319;48.974;8.462;2023-11-21T07:15:40;1.95;;;1.85;;
31746;SDS011;18319;48.974;8.462;2023-11-21T07:18:07;1.98;;;1.88;;
31746;SDS011;18319;48.974;8.462;2023-11-21T07:20:33;3.60;;;2.03;;
31746;SDS011;18319;48.974;8.462;2023-11-21T07:23:00;2.67;;;2.35;;
31746;SDS011;18319;48.974;8.462;2023-11-21T07:25:28;2.47;;;2.38;;
31746;SDS011;18319;48.974;8.462;2023-11-21T07:27:55;2.80;;;2.60;;
31746;SDS011;18319;48.974;8.462;2023-11-21T07:30:22;4.10;;;2.80;;
31746;SDS011;18319;48.974;8.462;2023-11-21T07:32:50;2.72;;;2.53;;
31746;SDS011;18319;48.974;8.462;2023-11-21T07:35:17;3.00;;;2.80;;
31746;SDS011;18319;48.974;8.462;2023-11-21T07:37:43;3.05;;;2.75;;
31746;SDS011;18319;48.974;8.462;2023-11-21T07:40:12;3.40;;;3.20;;
31746;SDS011;18319;48.974;8.462;2023-11-21T07:42:39;4.18;;;3.15;;
31746;SDS011;18319;48.974;8.462;2023-11-21T07:45:08;3.38;;;3.10;;
31746;SDS011;18319;48.974;8.462;2023-11-21T07:47:35;3.03;;;2.83;;
31746;SDS011;18319;48.974;8.462;2023-11-21T07:50:03;2.97;;;2.70;;
31746;SDS011;18319;48.974;8.462;2023-11-21T07:52:32;2.90;;;2.70;;
31746;SDS011;18319;48.974;8.462;2023-11-21T07:54:59;3.45;;;3.22;;
31746;SDS011;18319;48.974;8.462;2023-11-21T07:57:26;3.33;;;2.63;;
31746;SDS011;18319;48.974;8.462;2023-11-21T07:59:53;5.15;;;3.53;;
31746;SDS011;18319;48.974;8.462;2023-11-21T08:02:20;4.10;;;3.80;;
31746;SDS011;18319;48.974;8.462;2023-11-21T08:04:47;3.80;;;3.50;;
31746;SDS011;18319;48.974;8.462;2023-11-21T08:07:16;3.75;;;3.03;;
31746;SDS011;18319;48.974;8.462;2023-11-21T08:09:43;4.28;;;3.58;;
31746;SDS011;18319;48.974;8.462;2023-11-21T08:12:11;4.70;;;3.22;;
31746;SDS011;18319;48.974;8.462;2023-11-21T08:14:39;4.07;;;3.80;;
31746;SDS011;18319;48.974;8.462;2023-11-21T08:17:06;3.70;;;3.40;;
31746;SDS011;18319;48.974;8.462;2023-11-21T08:19:35;4.43;;;3.70;;
31746;SDS011;18319;48.974;8.462;2023-11-21T08:22:02;4.15;;;3.80;;
31746;SDS011;18319;48.974;8.462;2023-11-21T08:24:30;3.63;;;3.33;;
31746;SDS011;18319;48.974;8.462;2023-11-21T08:26:57;4.10;;;3.72;;
31746;SDS011;18319;48.974;8.462;2023-11-21T08:29:24;4.47;;;3.33;;
31746;SDS011;18319;48.974;8.462;2023-11-21T08:31:51;6.05;;;3.25;;
31746;SDS011;18319;48.974;8.462;2023-11-21T08:34:18;3.60;;;3.03;;
31746;SDS011;18319;48.974;8.462;2023-11-21T08:36:45;2.95;;;2.72;;
31746;SDS011;18319;48.974;8.462;2023-11-21T08:39:12;3.67;;;2.80;;
31746;SDS011;18319;48.974;8.462;2023-11-21T08:41:42;2.80;;;2.53;;
31746;SDS011;18319;48.974;8.462;2023-11-21T08:44:09;3.47;;;2.83;;
31746;SDS011;18319;48.974;8.462;2023-11-21T08:46:36;3.00;;;2.65;;
31746;SDS011;18319;48.974;8.462;2023-11-21T08:49:04;2.53;;;2.33;;
31746;SDS011;18319;48.974;8.462;2023-11-21T08:51:31;2.30;;;2.15;;
31746;SDS011;18319;48.974;8.462;2023-11-21T08:53:58;2.83;;;2.63;;
31746;SDS011;18319;48.974;8.462;2023-11-21T08:56:29;6.45;;;2.80;;
31746;SDS011;18319;48.974;8.462;2023-11-21T08:58:57;3.42;;;2.95;;
31746;SDS011;18319;48.974;8.462;2023-11-21T09:01:25;3.30;;;3.05;;
31746;SDS011;18319;48.974;8.462;2023-11-21T09:03:52;3.92;;;2.42;;
31746;SDS011;18319;48.974;8.462;2023-11-21T09:06:19;3.55;;;3.25;;
31746;SDS011;18319;48.974;8.462;2023-11-21T09:08:46;5.57;;;3.47;;
31746;SDS011;18319;48.974;8.462;2023-11-21T09:11:13;11.38;;;3.08;;
31746;SDS011;18319;48.974;8.462;2023-11-21T09:13:39;4.70;;;3.08;;
31746;SDS011;18319;48.974;8.462;2023-11-21T09:16:08;4.40;;;4.10;;
31746;SDS011;18319;48.974;8.462;2023-11-21T09:18:35;4.57;;;3.80;;
31746;SDS011;18319;48.974;8.462;2023-11-21T09:21:02;4.65;;;3.83;;
31746;SDS011;18319;48.974;8.462;2023-11-21T09:23:30;4.25;;;3.90;;
31746;SDS011;18319;48.974;8.462;2023-11-21T09:25:56;4.22;;;3.83;;
31746;SDS011;18319;48.974;8.462;2023-11-21T09:28:25;5.45;;;4.68;;
31746;SDS011;18319;48.974;8.462;2023-11-21T09:30:53;6.38;;;5.43;;
31746;SDS011;18319;48.974;8.462;2023-11-21T09:33:21;6.10;;;5.03;;
31746;SDS011;18319;48.974;8.462;2023-11-21T09:35:50;8.48;;;5.03;;
31746;SDS011;18319;48.974;8.462;2023-11-21T09:41:05;7.05;;;6.03;;
31746;SDS011;18319;48.974;8.462;2023-11-21T09:43:37;7.95;;;6.90;;
31746;SDS011;18319;48.974;8.462;2023-11-21T09:46:05;8.80;;;6.55;;
31746;SDS011;18319;48.974;8.462;2023-11-21T09:48:39;10.10;;;6.55;;
31746;SDS011;18319;48.974;8.462;2023-11-21T09:51:06;8.23;;;6.45;;
31746;SDS011;18319;48.974;8.462;2023-11-21T09:53:34;10.60;;;6.95;;
31746;SDS011;18319;48.974;8.462;2023-11-21T09:56:03;10.40;;;8.00;;
31746;SDS011;18319;48.974;8.462;2023-11-21T09:58:31;10.60;;;7.20;;
31746;SDS011;18319;48.974;8.462;2023-11-21T10:00:59;12.63;;;8.90;;
31746;SDS011;18319;48.974;8.462;2023-11-21T10:03:29;10.43;;;7.75;;
31746;SDS011;18319;48.974;8.462;2023-11-21T10:05:57;10.90;;;8.75;;
31746;SDS011;18319;48.974;8.462;2023-11-21T10:08:25;17.60;;;9.68;;
31746;SDS011;18319;48.974;8.462;2023-11-21T10:10:54;12.45;;;8.48;;
31746;SDS011;18319;48.974;8.462;2023-11-21T10:13:22;11.23;;;8.32;;
31746;SDS011;18319;48.974;8.462;2023-11-21T10:15:49;12.88;;;7.72;;
31746;SDS011;18319;48.974;8.462;2023-11-21T10:18:18;10.32;;;7.68;;
31746;SDS011;18319;48.974;8.462;2023-11-21T10:20:45;10.70;;;7.93;;
31746;SDS011;18319;48.974;8.462;2023-11-21T10:23:18;9.75;;;7.65;;
31746;SDS011;18319;48.974;8.462;2023-11-21T10:25:46;9.77;;;7.82;;
31746;SDS011;18319;48.974;8.462;2023-11-21T10:28:13;10.10;;;7.75;;
31746;SDS011;18319;48.974;8.462;2023-11-21T10:30:40;8.60;;;7.63;;
31746;SDS011;18319;48.974;8.462;2023-11-21T10:33:07;14.68;;;7.38;;
31746;SDS011;18319;48.974;8.462;2023-11-21T10:35:43;10.98;;;7.68;;
31746;SDS011;18319;48.974;8.462;2023-11-21T10:38:16;10.80;;;8.15;;
31746;SDS011;18319;48.974;8.462;2023-11-21T10:40:44;11.63;;;7.72;;
31746;SDS011;18319;48.974;8.462;2023-11-21T10:43:13;8.77;;;7.70;;
31746;SDS011;18319;48.974;8.462;2023-11-21T10:45:40;9.75;;;7.10;;
31746;SDS011;18319;48.974;8.462;2023-11-21T10:48:08;12.40;;;8.10;;
31746;SDS011;18319;48.974;8.462;2023-11-21T10:50:36;11.88;;;7.35;;
31746;SDS011;18319;48.974;8.462;2023-11-21T10:53:04;11.52;;;9.10;;
31746;SDS011;18319;48.974;8.462;2023-11-21T10:55:32;7.63;;;6.72;;
31746;SDS011;18319;48.974;8.462;2023-11-21T10:58:01;11.75;;;9.38;;
31746;SDS011;18319;48.974;8.462;2023-11-21T11:00:30;10.50;;;8.63;;
31746;SDS011;18319;48.974;8.462;2023-11-21T11:02:58;9.93;;;7.47;;
31746;SDS011;18319;48.974;8.462;2023-11-21T11:05:26;8.35;;;7.38;;
31746;SDS011;18319;48.974;8.462;2023-11-21T11:07:56;7.43;;;6.60;;
31746;SDS011;18319;48.974;8.462;2023-11-21T11:10:26;8.05;;;6.95;;
31746;SDS011;18319;48.974;8.462;2023-11-21T11:12:54;8.23;;;6.18;;
31746;SDS011;18319;48.974;8.462;2023-11-21T11:15:24;6.93;;;6.22;;
31746;SDS011;18319;48.974;8.462;2023-11-21T11:17:52;7.35;;;6.07;;
31746;SDS011;18319;48.974;8.462;2023-11-21T11:20:22;8.70;;;6.35;;
31746;SDS011;18319;48.974;8.462;2023-11-21T11:22:57;11.68;;;6.25;;
31746;SDS011;18319;48.974;8.462;2023-11-21T11:25:35;6.93;;;5.75;;
31746;SDS011;18319;48.974;8.462;2023-11-21T11:28:14;6.22;;;5.45;;
31746;SDS011;18319;48.974;8.462;2023-11-21T11:30:50;5.97;;;5.45;;
31746;SDS011;18319;48.974;8.462;2023-11-21T11:33:30;5.70;;;5.15;;
31746;SDS011;18319;48.974;8.462;2023-11-21T11:36:04;6.05;;;4.82;;
31746;SDS011;18319;48.974;8.462;2023-11-21T11:38:33;6.10;;;4.57;;
31746;SDS011;18319;48.974;8.462;2023-11-21T11:41:01;5.75;;;5.10;;
31746;SDS011;18319;48.974;8.462;2023-11-21T11:43:29;4.97;;;4.57;;
31746;SDS011;18319;48.974;8.462;2023-11-21T11:45:59;5.75;;;5.25;;
31746;SDS011;18319;48.974;8.462;2023-11-21T11:48:29;5.18;;;4.75;;
31746;SDS011;18319;48.974;8.462;2023-11-21T11:51:01;7.32;;;4.95;;
31746;SDS011;18319;48.974;8.462;2023-11-21T11:53:37;5.55;;;5.05;;
31746;SDS011;18319;48.974;8.462;2023-11-21T11:56:22;5.05;;;4.55;;
31746;SDS011;18319;48.974;8.462;2023-11-21T11:58:51;5.68;;;4.93;;
31746;SDS011;18319;48.974;8.462;2023-11-21T12:01:22;7.25;;;4.38;;
31746;SDS011;18319;48.974;8.462;2023-11-21T12:06:59;5.38;;;4.88;;
31746;SDS011;18319;48.974;8.462;2023-11-21T12:09:28;4.90;;;4.43;;
31746;SDS011;18319;48.974;8.462;2023-11-21T12:11:57;4.90;;;4.47;;
31746;SDS011;18319;48.974;8.462;2023-11-21T12:14:25;6.30;;;5.13;;
31746;SDS011;18319;48.974;8.462;2023-11-21T12:16:53;6.47;;;4.80;;
31746;SDS011;18319;48.974;8.462;2023-11-21T12:19:20;4.88;;;4.20;;
31746;SDS011;18319;48.974;8.462;2023-11-21T12:21:51;5.13;;;4.72;;
31746;SDS011;18319;48.974;8.462;2023-11-21T12:24:21;5.85;;;4.88;;
31746;SDS011;18319;48.974;8.462;2023-11-21T12:26:49;4.72;;;4.32;;
31746;SDS011;18319;48.974;8.462;2023-11-21T12:29:17;5.10;;;4.32;;
31746;SDS011;18319;48.974;8.462;2023-11-21T12:31:43;5.40;;;4.68;;
31746;SDS011;18319;48.974;8.462;2023-11-21T12:34:12;4.90;;;4.50;;
31746;SDS011;18319;48.974;8.462;2023-11-21T12:36:39;4.72;;;4.30;;
31746;SDS011;18319;48.974;8.462;2023-11-21T12:39:06;5.10;;;4.60;;
31746;SDS011;18319;48.974;8.462;2023-11-21T12:41:34;5.82;;;4.13;;
31746;SDS011;18319;48.974;8.462;2023-11-21T12:44:01;5.47;;;4.85;;
31746;SDS011;18319;48.974;8.462;2023-11-21T12:46:28;4.85;;;4.45;;
31746;SDS011;18319;48.974;8.462;2023-11-21T12:48:57;6.30;;;4.90;;
31746;SDS011;18319;48.974;8.462;2023-11-21T12:51:25;4.53;;;4.22;;
31746;SDS011;18319;48.974;8.462;2023-11-21T12:53:52;7.82;;;4.55;;
31746;SDS011;18319;48.974;8.462;2023-11-21T12:56:20;4.93;;;4.18;;
31746;SDS011;18319;48.974;8.462;2023-11-21T12:58:48;5.03;;;4.57;;
31746;SDS011;18319;48.974;8.462;2023-11-21T13:01:17;5.82;;;4.38;;
31746;SDS011;18319;48.974;8.462;2023-11-21T13:03:47;4.90;;;4.28;;
31746;SDS011;18319;48.974;8.462;2023-11-21T13:06:16;4.90;;;4.47;;
31746;SDS011;18319;48.974;8.462;2023-11-21T13:08:45;6.25;;;5.30;;
31746;SDS011;18319;48.974;8.462;2023-11-21T13:11:12;5.32;;;4.85;;
31746;SDS011;18319;48.974;8.462;2023-11-21T13:13:40;9.00;;;5.72;;
31746;SDS011;18319;48.974;8.462;2023-11-21T13:16:08;5.45;;;4.85;;
31746;SDS011;18319;48.974;8.462;2023-11-21T13:18:35;5.85;;;5.25;;
31746;SDS011;18319;48.974;8.462;2023-11-21T13:21:05;7.40;;;4.95;;
31746;SDS011;18319;48.974;8.462;2023-11-21T13:23:36;8.55;;;4.97;;
31746;SDS011;18319;48.974;8.462;2023-11-21T13:26:05;5.18;;;4.70;;
31746;SDS011;18319;48.974;8.462;2023-11-21T13:28:32;5.22;;;4.72;;
31746;SDS011;18319;48.974;8.462;2023-11-21T13:30:59;5.70;;;5.20;;
31746;SDS011;18319;48.974;8.462;2023-11-21T13:33:34;5.90;;;5.43;;
31746;SDS011;18319;48.974;8.462;2023-11-21T13:36:03;5.72;;;4.95;;
31746;SDS011;18319;48.974;8.462;2023-11-21T13:38:32;5.28;;;4.60;;
31746;SDS011;18319;48.974;8.462;2023-11-21T13:41:00;5.30;;;4.68;;
31746;SDS011;18319;48.974;8.462;2023-11-21T13:43:33;5.07;;;4.68;;
31746;SDS011;18319;48.974;8.462;2023-11-21T13:46:01;4.93;;;4.30;;
31746;SDS011;18319;48.974;8.462;2023-11-21T13:48:36;4.25;;;3.95;;
31746;SDS011;18319;48.974;8.462;2023-11-21T13:51:07;6.32;;;4.20;;
31746;SDS011;18319;48.974;8.462;2023-11-21T13:53:42;4.35;;;4.05;;
31746;SDS011;18319;48.974;8.462;2023-11-21T13:56:09;4.38;;;3.97;;
31746;SDS011;18319;48.974;8.462;2023-11-21T13:58:39;4.10;;;3.70;;
31746;SDS011;18319;48.974;8.462;2023-11-21T14:01:11;3.58;;;3.35;;
31746;SDS011;18319;48.974;8.462;2023-11-21T14:03:57;3.92;;;3.60;;
31746;SDS011;18319;48.974;8.462;2023-11-21T14:06:33;4.15;;;3.75;;
31746;SDS011;18319;48.974;8.462;2023-11-21T14:09:09;3.85;;;3.55;;
31746;SDS011;18319;48.974;8.462;2023-11-21T14:11:38;5.93;;;3.83;;
31746;SDS011;18319;48.974;8.462;2023-11-21T14:14:07;3.47;;;3.28;;
31746;SDS011;18319;48.974;8.462;2023-11-21T14:16:34;4.63;;;4.22;;
31746;SDS011;18319;48.974;8.462;2023-11-21T14:19:01;4.03;;;3.28;;
31746;SDS011;18319;48.974;8.462;2023-11-21T14:21:39;3.67;;;3.38;;
31746;SDS011;18319;48.974;8.462;2023-11-21T14:24:08;3.83;;;3.60;;
31746;SDS011;18319;48.974;8.462;2023-11-21T14:26:35;3.80;;;2.85;;
31746;SDS011;18319;48.974;8.462;2023-11-21T14:29:02;3.72;;;3.20;;
31746;SDS011;18319;48.974;8.462;2023-11-21T14:31:31;3.58;;;3.38;;
31746;SDS011;18319;48.974;8.462;2023-11-21T14:33:58;3.75;;;3.42;;
31746;SDS011;18319;48.974;8.462;2023-11-21T14:36:26;5.63;;;2.85;;
31746;SDS011;18319;48.974;8.462;2023-11-21T14:38:53;3.10;;;2.90;;
31746;SDS011;18319;48.974;8.462;2023-11-21T14:41:20;3.05;;;2.72;;
31746;SDS011;18319;48.974;8.462;2023-11-21T14:43:47;3.72;;;3.42;;
31746;SDS011;18319;48.974;8.462;2023-11-21T14:46:15;3.13;;;2.85;;
31746;SDS011;18319;48.974;8.462;2023-11-21T14:48:45;3.95;;;2.78;;
31746;SDS011;18319;48.974;8.462;2023-11-21T14:51:23;3.83;;;3.45;;
31746;SDS011;18319;48.974;8.462;2023-11-21T14:53:56;3.67;;;2.78;;
31746;SDS011;18319;48.974;8.462;2023-11-21T14:56:30;3.30;;;3.00;;